createdAt,value
2023-05-14T00:00:30.729Z,25.00
2023-05-14T00:01:30.798Z,25.00
2023-05-14T00:02:30.819Z,25.00
2023-05-14T00:03:30.872Z,0.89
2023-05-14T00:04:30.957Z,0.00
2023-05-14T00:05:30.844Z,0.00
2023-05-14T00:06:30.882Z,0.00
2023-05-14T00:07:31.058Z,0.00
2023-05-14T00:08:30.945Z,4.82
2023-05-14T00:09:30.976Z,19.98
2023-05-14T00:10:31.011Z,25.29
2023-05-14T00:11:31.052Z,25.00
2023-05-14T00:12:31.079Z,25.00
2023-05-14T00:13:31.133Z,25.00
2023-05-14T00:14:31.164Z,28.09
2023-05-14T00:15:32.960Z,26.22
2023-05-14T00:16:31.271Z,24.17
2023-05-14T00:17:31.212Z,18.04
2023-05-14T00:18:31.227Z,9.74
2023-05-14T00:19:31.171Z,5.95
2023-05-14T00:20:31.171Z,0.00
2023-05-14T00:21:31.161Z,25.00
2023-05-14T00:22:31.182Z,25.00
2023-05-14T00:23:31.158Z,25.03
2023-05-14T00:24:31.143Z,25.00
2023-05-14T00:25:31.141Z,27.11
2023-05-14T00:26:31.225Z,25.00
2023-05-14T00:27:31.140Z,26.67
2023-05-14T00:28:31.132Z,24.96
2023-05-14T00:29:31.149Z,27.94
2023-05-14T00:30:31.113Z,25.90
2023-05-14T00:31:31.162Z,27.60
2023-05-14T00:32:31.139Z,26.87
2023-05-14T00:33:31.114Z,27.05
2023-05-14T00:34:31.110Z,27.20
2023-05-14T00:35:31.106Z,25.00
2023-05-14T00:36:31.099Z,26.52
2023-05-14T00:37:31.095Z,27.96
2023-05-14T00:38:31.082Z,25.02
2023-05-14T00:39:31.080Z,26.02
2023-05-14T00:40:31.082Z,27.11
2023-05-14T00:41:31.065Z,25.61
2023-05-14T00:42:31.065Z,27.71
2023-05-14T00:43:31.060Z,26.37
2023-05-14T00:44:31.070Z,29.08
2023-05-14T00:45:31.100Z,27.04
2023-05-14T00:46:31.165Z,28.52
2023-05-14T00:47:31.177Z,28.16
2023-05-14T00:48:31.189Z,28.52
2023-05-14T00:49:31.254Z,25.99
2023-05-14T00:50:31.268Z,27.71
2023-05-14T00:51:31.300Z,28.61
2023-05-14T00:52:31.344Z,27.95
2023-05-14T00:53:31.392Z,25.03
2023-05-14T00:54:31.444Z,26.08
2023-05-14T00:55:31.486Z,25.67
2023-05-14T00:56:31.514Z,28.63
2023-05-14T00:57:31.577Z,27.38
2023-05-14T00:58:31.608Z,26.75
2023-05-14T00:59:31.654Z,27.26
2023-05-14T01:00:31.699Z,28.04
2023-05-14T01:01:32.031Z,26.03
2023-05-14T01:02:31.852Z,29.17
2023-05-14T01:03:31.945Z,27.58
2023-05-14T01:04:31.868Z,27.78
2023-05-14T01:05:31.931Z,27.67
2023-05-14T01:06:31.954Z,28.66
2023-05-14T01:07:31.991Z,28.24
2023-05-14T01:08:32.043Z,29.70
2023-05-14T01:09:32.080Z,25.88
2023-05-14T01:10:32.124Z,29.71
2023-05-14T01:11:32.171Z,28.35
2023-05-14T01:12:32.214Z,27.55
2023-05-14T01:13:32.256Z,27.56
2023-05-14T01:14:32.301Z,27.69
2023-05-14T01:15:32.352Z,29.24
2023-05-14T01:16:32.396Z,29.35
2023-05-14T01:17:32.502Z,27.00
2023-05-14T01:18:32.519Z,27.66
2023-05-14T01:19:32.537Z,27.51
2023-05-14T01:20:32.580Z,27.65
2023-05-14T01:21:32.620Z,27.33
2023-05-14T01:22:32.656Z,29.68
2023-05-14T01:23:32.703Z,29.75
2023-05-14T01:24:32.741Z,27.66
2023-05-14T01:25:33.236Z,26.68
2023-05-14T01:26:32.823Z,27.01
2023-05-14T01:27:32.875Z,25.42
2023-05-14T01:28:32.915Z,27.11
2023-05-14T01:29:32.957Z,26.32
2023-05-14T01:30:33.017Z,29.81
2023-05-14T01:31:33.077Z,26.45
2023-05-14T01:32:33.110Z,28.01
2023-05-14T01:33:33.173Z,27.45
2023-05-14T01:34:33.191Z,29.03
2023-05-14T01:35:33.238Z,25.03
2023-05-14T01:36:33.281Z,29.79
2023-05-14T01:37:33.332Z,26.47
2023-05-14T01:38:33.376Z,27.48
2023-05-14T01:39:33.429Z,27.11
2023-05-14T01:40:33.502Z,27.07
2023-05-14T01:41:33.521Z,30.12
2023-05-14T01:42:33.563Z,26.96
2023-05-14T01:43:33.702Z,26.41
2023-05-14T01:44:33.657Z,27.94
2023-05-14T01:45:33.703Z,26.32
2023-05-14T01:46:33.982Z,27.77
2023-05-14T01:47:33.830Z,27.23
2023-05-14T01:48:33.849Z,26.95
2023-05-14T01:49:33.922Z,27.79
2023-05-14T01:50:33.945Z,28.42
2023-05-14T01:51:33.994Z,29.67
2023-05-14T01:52:34.039Z,27.15
2023-05-14T01:53:34.086Z,28.80
2023-05-14T01:54:34.132Z,28.47
2023-05-14T01:55:34.174Z,25.00
2023-05-14T01:56:34.238Z,27.98
2023-05-14T01:57:34.327Z,26.58
2023-05-14T01:58:34.323Z,26.89
2023-05-14T01:59:34.366Z,29.48
2023-05-14T02:00:34.419Z,26.64
2023-05-14T02:01:34.513Z,27.02
2023-05-14T02:02:34.583Z,27.69
2023-05-14T02:03:34.604Z,28.29
2023-05-14T02:04:34.624Z,27.29
2023-05-14T02:05:34.699Z,27.66
2023-05-14T02:06:34.719Z,28.42
2023-05-14T02:07:34.774Z,28.46
2023-05-14T02:08:34.819Z,28.51
2023-05-14T02:09:34.871Z,30.10
2023-05-14T02:10:34.915Z,28.09
2023-05-14T02:11:34.973Z,28.59
2023-05-14T02:12:35.041Z,27.20
2023-05-14T02:13:35.057Z,29.15
2023-05-14T02:14:35.103Z,29.02
2023-05-14T02:15:35.174Z,26.67
2023-05-14T02:16:35.214Z,29.40
2023-05-14T02:17:35.292Z,27.79
2023-05-14T02:18:35.374Z,31.00
2023-05-14T02:19:35.352Z,29.17
2023-05-14T02:20:35.408Z,25.30
2023-05-14T02:21:35.472Z,27.39
2023-05-14T02:22:35.508Z,28.99
2023-05-14T02:23:41.453Z,28.35
2023-05-14T02:24:35.575Z,28.63
2023-05-14T02:25:35.573Z,29.55
2023-05-14T02:26:35.573Z,29.59
2023-05-14T02:27:35.585Z,29.96
2023-05-14T02:28:35.645Z,29.81
2023-05-14T02:29:35.646Z,28.90
2023-05-14T02:30:35.609Z,26.33
2023-05-14T02:31:35.650Z,29.55
2023-05-14T02:32:35.688Z,28.85
2023-05-14T02:33:35.661Z,27.04
2023-05-14T02:34:35.616Z,27.05
2023-05-14T02:35:35.620Z,25.00
2023-05-14T02:36:35.645Z,27.13
2023-05-14T02:37:35.653Z,29.63
2023-05-14T02:38:35.653Z,28.68
2023-05-14T02:39:35.643Z,28.59
2023-05-14T02:40:35.649Z,27.93
2023-05-14T02:41:35.647Z,28.67
2023-05-14T02:42:35.699Z,28.06
2023-05-14T02:43:35.667Z,30.55
2023-05-14T02:44:35.660Z,29.98
2023-05-14T02:45:35.665Z,29.10
2023-05-14T02:46:35.696Z,26.02
2023-05-14T02:47:37.940Z,30.06
2023-05-14T02:48:35.702Z,30.20
2023-05-14T02:49:35.680Z,30.44
2023-05-14T02:50:35.696Z,28.60
2023-05-14T02:51:35.687Z,28.97
2023-05-14T02:52:35.702Z,28.80
2023-05-14T02:53:35.750Z,29.63
2023-05-14T02:54:35.719Z,26.07
2023-05-14T02:55:35.713Z,29.49
2023-05-14T02:56:35.722Z,29.87
2023-05-14T02:57:35.724Z,27.70
2023-05-14T02:58:35.730Z,28.81
2023-05-14T02:59:35.741Z,30.14
2023-05-14T03:00:35.775Z,29.19
2023-05-14T03:01:35.752Z,32.91
2023-05-14T03:02:35.842Z,29.17
2023-05-14T03:03:35.754Z,27.59
2023-05-14T03:04:35.755Z,30.22
2023-05-14T03:05:35.763Z,29.50
2023-05-14T03:06:35.764Z,30.06
2023-05-14T03:07:35.789Z,28.23
2023-05-14T03:08:35.775Z,30.45
2023-05-14T03:09:38.092Z,28.19
2023-05-14T03:10:35.791Z,28.38
2023-05-14T03:11:35.800Z,28.56
2023-05-14T03:12:35.805Z,28.84
2023-05-14T03:13:35.811Z,28.52
2023-05-14T03:14:35.828Z,28.12
2023-05-14T03:15:35.816Z,28.83
2023-05-14T03:16:35.951Z,29.57
2023-05-14T03:17:35.901Z,27.74
2023-05-14T03:18:35.885Z,29.13
2023-05-14T03:19:35.855Z,28.20
2023-05-14T03:20:35.848Z,28.97
2023-05-14T03:21:35.849Z,26.87
2023-05-14T03:22:35.852Z,31.20
2023-05-14T03:23:35.852Z,28.55
2023-05-14T03:24:35.847Z,28.32
2023-05-14T03:25:35.941Z,29.50
2023-05-14T03:26:35.870Z,26.19
2023-05-14T03:27:35.866Z,29.22
2023-05-14T03:28:35.859Z,27.60
2023-05-14T03:29:35.861Z,29.24
2023-05-14T03:30:35.895Z,27.37
2023-05-14T03:31:35.877Z,28.12
2023-05-14T03:32:35.953Z,31.28
2023-05-14T03:33:35.901Z,27.04
2023-05-14T03:34:35.901Z,29.60
2023-05-14T03:35:35.891Z,28.80
2023-05-14T03:36:35.894Z,31.78
2023-05-14T03:37:35.892Z,26.49
2023-05-14T03:38:35.890Z,30.39
2023-05-14T03:39:35.898Z,31.02
2023-05-14T03:40:35.910Z,28.18
2023-05-14T03:41:36.047Z,27.47
2023-05-14T03:42:35.944Z,27.73
2023-05-14T03:43:35.912Z,28.01
2023-05-14T03:44:35.925Z,28.13
2023-05-14T03:45:35.978Z,28.84
2023-05-14T03:46:36.043Z,26.98
2023-05-14T03:47:36.122Z,27.11
2023-05-14T03:48:36.142Z,28.17
2023-05-14T03:49:36.176Z,27.55
2023-05-14T03:50:36.234Z,28.35
2023-05-14T03:51:36.275Z,26.82
2023-05-14T03:52:36.334Z,26.49
2023-05-14T03:53:36.380Z,26.64
2023-05-14T03:54:36.418Z,27.70
2023-05-14T03:55:36.617Z,26.95
2023-05-14T03:56:36.520Z,26.83
2023-05-14T03:57:36.605Z,30.01
2023-05-14T03:58:36.637Z,29.96
2023-05-14T03:59:36.686Z,27.63
2023-05-14T04:00:36.728Z,30.59
2023-05-14T04:01:36.777Z,29.31
2023-05-14T04:02:36.899Z,25.38
2023-05-14T04:03:37.093Z,28.67
2023-05-14T04:04:36.993Z,27.17
2023-05-14T04:05:36.997Z,25.88
2023-05-14T04:06:37.051Z,28.42
2023-05-14T04:07:37.094Z,30.01
2023-05-14T04:08:37.151Z,27.74
2023-05-14T04:09:37.206Z,29.20
2023-05-14T04:10:37.247Z,26.03
2023-05-14T04:11:37.304Z,26.26
2023-05-14T04:12:37.349Z,28.78
2023-05-14T04:13:37.434Z,27.96
2023-05-14T04:14:37.454Z,25.03
2023-05-14T04:15:37.504Z,26.51
2023-05-14T04:16:37.596Z,32.46
2023-05-14T04:17:37.734Z,29.91
2023-05-14T04:18:37.673Z,31.36
2023-05-14T04:19:37.706Z,28.31
2023-05-14T04:20:37.768Z,28.69
2023-05-14T04:21:37.814Z,26.07
2023-05-14T04:22:37.869Z,26.13
2023-05-14T04:23:37.906Z,29.26
2023-05-14T04:24:37.982Z,29.76
2023-05-14T04:25:38.013Z,30.69
2023-05-14T04:26:38.054Z,27.90
2023-05-14T04:27:38.110Z,30.71
2023-05-14T04:28:38.164Z,30.16
2023-05-14T04:29:38.234Z,28.88
2023-05-14T04:30:38.280Z,30.35
2023-05-14T04:31:38.374Z,28.72
2023-05-14T04:32:38.387Z,28.53
2023-05-14T04:33:38.423Z,28.01
2023-05-14T04:34:38.476Z,27.79
2023-05-14T04:35:38.523Z,29.39
2023-05-14T04:36:38.581Z,29.75
2023-05-14T04:37:38.629Z,30.32
2023-05-14T04:38:38.677Z,29.23
2023-05-14T04:39:38.724Z,27.32
2023-05-14T04:40:38.784Z,29.67
2023-05-14T04:41:38.839Z,27.35
2023-05-14T04:42:38.894Z,28.77
2023-05-14T04:43:38.935Z,29.83
2023-05-14T04:44:38.991Z,27.50
2023-05-14T04:45:39.075Z,27.46
2023-05-14T04:46:39.118Z,27.30
2023-05-14T04:47:39.155Z,27.25
2023-05-14T04:48:39.173Z,27.63
2023-05-14T04:49:39.243Z,27.48
2023-05-14T04:50:39.302Z,28.96
2023-05-14T04:51:39.806Z,30.02
2023-05-14T04:52:39.393Z,27.00
2023-05-14T04:53:39.466Z,26.76
2023-05-14T04:54:39.548Z,25.34
2023-05-14T04:55:39.546Z,31.97
2023-05-14T04:56:39.611Z,29.81
2023-05-14T04:57:39.664Z,29.02
2023-05-14T04:58:39.725Z,28.68
2023-05-14T04:59:39.777Z,30.18
2023-05-14T05:00:39.828Z,32.07
2023-05-14T05:01:40.037Z,26.87
2023-05-14T05:02:39.978Z,31.19
2023-05-14T05:03:40.040Z,29.10
2023-05-14T05:04:40.046Z,31.16
2023-05-14T05:05:40.102Z,30.22
2023-05-14T05:06:40.154Z,29.78
2023-05-14T05:07:40.227Z,28.28
2023-05-14T05:08:40.287Z,26.64
2023-05-14T05:09:40.332Z,31.01
2023-05-14T05:10:40.392Z,27.26
2023-05-14T05:11:40.444Z,30.44
2023-05-14T05:12:40.501Z,30.94
2023-05-14T05:13:40.557Z,28.16
2023-05-14T05:14:40.673Z,30.07
2023-05-14T05:15:40.684Z,27.83
2023-05-14T05:16:40.746Z,28.61
2023-05-14T05:17:40.864Z,31.50
2023-05-14T05:18:40.920Z,26.22
2023-05-14T05:19:44.262Z,27.78
2023-05-14T05:20:40.919Z,28.12
2023-05-14T05:21:40.947Z,28.29
2023-05-14T05:22:40.917Z,27.80
2023-05-14T05:23:40.918Z,28.46
2023-05-14T05:24:40.972Z,30.34
2023-05-14T05:25:40.934Z,30.18
2023-05-14T05:26:40.932Z,29.92
2023-05-14T05:27:39.933Z,28.51
2023-05-14T05:28:40.938Z,27.93
2023-05-14T05:29:40.954Z,28.86
2023-05-14T05:30:40.955Z,31.08
2023-05-14T05:31:41.042Z,31.12
2023-05-14T05:32:41.078Z,29.37
2023-05-14T05:33:41.029Z,29.17
2023-05-14T05:34:41.056Z,28.93
2023-05-14T05:35:41.105Z,27.46
2023-05-14T05:36:41.166Z,26.89
2023-05-14T05:37:41.230Z,27.10
2023-05-14T05:38:41.285Z,30.31
2023-05-14T05:39:41.339Z,25.00
2023-05-14T05:40:41.397Z,27.32
2023-05-14T05:41:41.458Z,27.56
2023-05-14T05:42:41.519Z,26.91
2023-05-14T05:43:41.577Z,25.00
2023-05-14T05:44:41.636Z,30.08
2023-05-14T05:45:41.695Z,30.75
2023-05-14T05:46:41.815Z,30.30
2023-05-14T05:47:41.864Z,27.85
2023-05-14T05:48:41.870Z,30.58
2023-05-14T05:49:41.954Z,27.35
2023-05-14T05:50:41.988Z,28.85
2023-05-14T05:51:42.044Z,32.26
2023-05-14T05:52:42.118Z,29.90
2023-05-14T05:53:42.152Z,29.48
2023-05-14T05:54:42.210Z,28.94
2023-05-14T05:55:42.270Z,32.00
2023-05-14T05:56:42.328Z,31.34
2023-05-14T05:57:42.379Z,29.34
2023-05-14T05:58:42.437Z,30.59
2023-05-14T05:59:42.498Z,29.17
2023-05-14T06:00:42.553Z,28.17
2023-05-14T06:01:42.676Z,30.25
2023-05-14T06:02:42.912Z,29.72
2023-05-14T06:03:42.737Z,31.10
2023-05-14T06:04:42.804Z,28.91
2023-05-14T06:05:42.934Z,27.79
2023-05-14T06:06:42.919Z,25.00
2023-05-14T06:07:42.953Z,33.55
2023-05-14T06:08:43.013Z,31.74
2023-05-14T06:09:43.071Z,33.02
2023-05-14T06:10:43.143Z,32.73
2023-05-14T06:11:43.191Z,30.75
2023-05-14T06:12:43.247Z,30.22
2023-05-14T06:13:43.286Z,30.95
2023-05-14T06:14:43.355Z,33.26
2023-05-14T06:15:43.406Z,30.87
2023-05-14T06:16:43.505Z,29.07
2023-05-14T06:17:43.589Z,27.51
2023-05-14T06:18:43.588Z,31.59
2023-05-14T06:19:43.658Z,27.67
2023-05-14T06:20:43.699Z,28.52
2023-05-14T06:21:43.786Z,31.56
2023-05-14T06:22:43.827Z,31.68
2023-05-14T06:23:43.881Z,31.08
2023-05-14T06:24:43.960Z,33.04
2023-05-14T06:25:44.003Z,32.20
2023-05-14T06:26:44.064Z,29.53
2023-05-14T06:27:44.126Z,28.27
2023-05-14T06:28:44.181Z,30.65
2023-05-14T06:29:44.254Z,32.19
2023-05-14T06:30:44.326Z,28.13
2023-05-14T06:31:44.402Z,29.68
2023-05-14T06:32:44.454Z,31.12
2023-05-14T06:33:44.483Z,31.40
2023-05-14T06:34:44.546Z,30.41
2023-05-14T06:35:44.611Z,29.02
2023-05-14T06:36:44.725Z,28.39
2023-05-14T06:37:44.753Z,27.84
2023-05-14T06:38:44.779Z,29.71
2023-05-14T06:39:44.834Z,33.93
2023-05-14T06:40:44.900Z,30.10
2023-05-14T06:41:44.962Z,30.24
2023-05-14T06:42:45.013Z,30.86
2023-05-14T06:43:45.087Z,29.88
2023-05-14T06:44:45.159Z,31.25
2023-05-14T06:45:45.207Z,31.37
2023-05-14T06:46:45.269Z,29.42
2023-05-14T06:47:45.386Z,28.16
2023-05-14T06:48:45.425Z,30.18
2023-05-14T06:49:45.446Z,29.02
2023-05-14T06:50:45.497Z,32.12
2023-05-14T06:51:45.562Z,30.50
2023-05-14T06:52:45.626Z,30.76
2023-05-14T06:53:45.700Z,29.83
2023-05-14T06:54:45.736Z,32.84
2023-05-14T06:55:45.813Z,30.03
2023-05-14T06:56:45.870Z,28.22
2023-05-14T06:57:45.929Z,30.57
2023-05-14T06:58:45.989Z,30.11
2023-05-14T06:59:46.048Z,28.95
2023-05-14T07:00:46.118Z,28.93
2023-05-14T07:01:46.220Z,30.05
2023-05-14T07:02:46.251Z,28.56
2023-05-14T07:03:46.363Z,26.86
2023-05-14T07:04:46.495Z,29.00
2023-05-14T07:05:46.407Z,31.07
2023-05-14T07:06:46.477Z,28.63
2023-05-14T07:07:46.532Z,32.79
2023-05-14T07:08:46.603Z,27.05
2023-05-14T07:09:46.679Z,30.33
2023-05-14T07:10:46.715Z,28.43
2023-05-14T07:11:46.776Z,29.90
2023-05-14T07:12:46.833Z,31.01
2023-05-14T07:13:46.942Z,31.53
2023-05-14T07:14:46.965Z,31.02
2023-05-14T07:15:47.023Z,28.05
2023-05-14T07:16:47.177Z,30.63
2023-05-14T07:17:47.199Z,32.33
2023-05-14T07:18:47.248Z,29.44
2023-05-14T07:19:47.242Z,29.77
2023-05-14T07:20:47.302Z,32.66
2023-05-14T07:21:47.362Z,29.95
2023-05-14T07:22:47.411Z,30.04
2023-05-14T07:23:47.475Z,30.71
2023-05-14T07:24:47.552Z,27.88
2023-05-14T07:25:47.597Z,29.06
2023-05-14T07:26:47.637Z,30.18
2023-05-14T07:27:47.712Z,29.70
2023-05-14T07:28:47.745Z,30.40
2023-05-14T07:29:47.806Z,30.98
2023-05-14T07:30:47.860Z,29.21
2023-05-14T07:31:48.039Z,27.05
2023-05-14T07:32:47.990Z,27.44
2023-05-14T07:33:48.040Z,28.03
2023-05-14T07:34:48.120Z,28.14
2023-05-14T07:35:48.168Z,31.07
2023-05-14T07:36:48.210Z,29.55
2023-05-14T07:37:48.258Z,32.00
2023-05-14T07:38:48.312Z,29.20
2023-05-14T07:39:48.372Z,29.56
2023-05-14T07:40:48.432Z,28.35
2023-05-14T07:41:48.498Z,31.04
2023-05-14T07:42:48.528Z,30.63
2023-05-14T07:43:48.593Z,32.42
2023-05-14T07:44:48.642Z,30.03
2023-05-14T07:45:48.683Z,30.80
2023-05-14T07:46:48.736Z,28.63
2023-05-14T07:47:48.939Z,31.30
2023-05-14T07:48:48.851Z,30.07
2023-05-14T07:49:48.900Z,29.27
2023-05-14T07:50:48.953Z,32.68
2023-05-14T07:51:48.996Z,30.40
2023-05-14T07:52:49.064Z,26.23
2023-05-14T07:53:49.148Z,28.23
2023-05-14T07:54:50.662Z,30.67
2023-05-14T07:55:49.388Z,31.61
2023-05-14T07:56:49.441Z,29.89
2023-05-14T07:57:49.517Z,27.81
2023-05-14T07:58:49.534Z,30.81
2023-05-14T07:59:49.604Z,26.52
2023-05-14T08:00:49.644Z,29.88
2023-05-14T08:01:49.743Z,28.15
2023-05-14T08:02:49.861Z,29.57
2023-05-14T08:03:49.914Z,30.02
2023-05-14T08:04:49.835Z,33.70
2023-05-14T08:05:49.897Z,29.54
2023-05-14T08:06:49.937Z,31.16
2023-05-14T08:07:49.987Z,26.77
2023-05-14T08:08:50.035Z,32.18
2023-05-14T08:09:50.088Z,29.74
2023-05-14T08:10:50.164Z,29.01
2023-05-14T08:11:50.186Z,26.78
2023-05-14T08:12:50.257Z,30.58
2023-05-14T08:13:50.313Z,29.93
2023-05-14T08:14:50.344Z,30.40
2023-05-14T08:15:50.395Z,31.23
2023-05-14T08:16:50.491Z,31.29
2023-05-14T08:17:50.520Z,31.30
2023-05-14T08:18:50.608Z,28.67
2023-05-14T08:19:50.596Z,32.10
2023-05-14T08:20:50.694Z,32.74
2023-05-14T08:21:50.670Z,30.47
2023-05-14T08:22:50.712Z,30.19
2023-05-14T08:23:50.762Z,32.12
2023-05-14T08:24:50.818Z,27.55
2023-05-14T08:25:50.852Z,32.20
2023-05-14T08:26:50.921Z,32.19
2023-05-14T08:27:50.937Z,34.18
2023-05-14T08:28:50.972Z,29.27
2023-05-14T08:29:51.101Z,31.44
2023-05-14T08:30:51.094Z,30.70
2023-05-14T08:31:51.105Z,28.27
2023-05-14T08:32:51.185Z,29.45
2023-05-14T08:33:51.190Z,28.80
2023-05-14T08:34:51.263Z,31.09
2023-05-14T08:35:51.282Z,30.47
2023-05-14T08:36:51.336Z,30.12
2023-05-14T08:37:51.393Z,32.23
2023-05-14T08:38:51.419Z,29.96
2023-05-14T08:39:51.460Z,32.61
2023-05-14T08:40:51.496Z,28.10
2023-05-14T08:41:51.560Z,34.02
2023-05-14T08:42:51.623Z,31.57
2023-05-14T08:43:51.627Z,29.68
2023-05-14T08:44:51.662Z,31.18
2023-05-14T08:45:51.730Z,29.67
2023-05-14T08:46:51.741Z,30.38
2023-05-14T08:47:51.927Z,33.02
2023-05-14T08:48:51.889Z,31.50
2023-05-14T08:49:51.896Z,31.21
2023-05-14T08:50:51.914Z,29.63
2023-05-14T08:51:51.959Z,32.72
2023-05-14T08:52:51.993Z,29.71
2023-05-14T08:53:52.050Z,30.01
2023-05-14T08:54:52.064Z,35.60
2023-05-14T08:55:52.115Z,32.02
2023-05-14T08:56:52.130Z,32.73
2023-05-14T08:57:52.176Z,32.78
2023-05-14T08:58:52.240Z,30.89
2023-05-14T08:59:52.259Z,30.40
2023-05-14T09:00:52.290Z,31.13
2023-05-14T09:01:52.360Z,34.21
2023-05-14T09:02:52.454Z,31.64
2023-05-14T09:03:52.410Z,32.03
2023-05-14T09:04:52.477Z,30.34
2023-05-14T09:05:52.487Z,31.90
2023-05-14T09:06:52.546Z,33.37
2023-05-14T09:07:52.550Z,34.16
2023-05-14T09:08:52.598Z,30.50
2023-05-14T09:09:52.627Z,32.83
2023-05-14T09:10:53.403Z,33.88
2023-05-14T09:11:52.719Z,33.69
2023-05-14T09:12:52.739Z,32.68
2023-05-14T09:13:52.757Z,32.67
2023-05-14T09:14:52.809Z,33.22
2023-05-14T09:15:52.830Z,33.19
2023-05-14T09:16:53.110Z,33.40
2023-05-14T09:17:52.993Z,32.10
2023-05-14T09:18:52.959Z,33.34
2023-05-14T09:19:53.101Z,31.29
2023-05-14T09:20:52.981Z,31.45
2023-05-14T09:21:53.045Z,31.50
2023-05-14T09:22:53.050Z,29.54
2023-05-14T09:23:53.071Z,32.05
2023-05-14T09:24:53.104Z,30.93
2023-05-14T09:25:53.166Z,32.00
2023-05-14T09:26:53.176Z,34.30
2023-05-14T09:27:53.235Z,34.88
2023-05-14T09:28:53.221Z,29.74
2023-05-14T09:29:53.245Z,34.03
2023-05-14T09:30:53.281Z,34.07
2023-05-14T09:31:53.401Z,35.61
2023-05-14T09:32:53.380Z,34.72
2023-05-14T09:33:53.393Z,34.15
2023-05-14T09:34:53.382Z,36.21
2023-05-14T09:35:53.411Z,32.17
2023-05-14T09:36:53.442Z,35.34
2023-05-14T09:37:53.489Z,33.06
2023-05-14T09:38:53.497Z,32.41
2023-05-14T09:39:53.523Z,35.03
2023-05-14T09:40:53.555Z,34.85
2023-05-14T09:41:53.578Z,35.16
2023-05-14T09:42:53.610Z,37.17
2023-05-14T09:43:53.627Z,30.95
2023-05-14T09:44:53.647Z,33.96
2023-05-14T09:45:53.688Z,34.07
2023-05-14T09:46:53.798Z,33.62
2023-05-14T09:47:53.814Z,35.38
2023-05-14T09:48:53.803Z,33.22
2023-05-14T09:49:53.809Z,35.15
2023-05-14T09:50:53.797Z,36.56
2023-05-14T09:51:53.837Z,34.44
2023-05-14T09:52:53.850Z,34.79
2023-05-14T09:53:53.867Z,35.66
2023-05-14T09:54:54.061Z,33.21
2023-05-14T09:55:53.955Z,32.98
2023-05-14T09:56:55.585Z,33.56
2023-05-14T09:57:53.936Z,34.99
2023-05-14T09:58:53.937Z,39.46
2023-05-14T09:59:53.940Z,36.40
2023-05-14T10:00:53.971Z,33.77
2023-05-14T10:01:53.938Z,34.97
2023-05-14T10:02:54.544Z,34.78
2023-05-14T10:03:53.981Z,38.61
2023-05-14T10:04:53.990Z,36.08
2023-05-14T10:05:53.982Z,35.72
2023-05-14T10:06:53.948Z,35.89
2023-05-14T10:07:53.951Z,35.05
2023-05-14T10:08:53.943Z,38.74
2023-05-14T10:09:53.946Z,37.31
2023-05-14T10:10:53.937Z,35.46
2023-05-14T10:11:53.942Z,38.09
2023-05-14T10:12:53.947Z,36.20
2023-05-14T10:13:53.937Z,36.25
2023-05-14T10:14:53.947Z,36.91
2023-05-14T10:15:53.935Z,35.83
2023-05-14T10:16:53.945Z,36.82
2023-05-14T10:17:54.060Z,37.30
2023-05-14T10:18:55.764Z,38.31
2023-05-14T10:19:53.939Z,38.58
2023-05-14T10:20:53.940Z,38.82
2023-05-14T10:21:53.973Z,38.84
2023-05-14T10:22:53.935Z,38.00
2023-05-14T10:23:53.927Z,35.73
2023-05-14T10:24:53.948Z,36.87
2023-05-14T10:25:53.941Z,36.63
2023-05-14T10:26:53.942Z,36.42
2023-05-14T10:27:53.954Z,37.83
2023-05-14T10:28:53.935Z,37.02
2023-05-14T10:29:53.945Z,36.26
2023-05-14T10:30:53.962Z,38.25
2023-05-14T10:31:53.940Z,34.90
2023-05-14T10:32:53.957Z,40.22
2023-05-14T10:33:53.932Z,38.48
2023-05-14T10:34:54.021Z,33.67
2023-05-14T10:35:53.927Z,37.55
2023-05-14T10:36:53.928Z,36.24
2023-05-14T10:37:53.961Z,37.76
2023-05-14T10:38:53.926Z,37.03
2023-05-14T10:39:54.006Z,36.81
2023-05-14T10:40:54.323Z,38.05
2023-05-14T10:41:53.925Z,38.46
2023-05-14T10:42:53.925Z,40.23
2023-05-14T10:43:53.924Z,40.15
2023-05-14T10:44:53.925Z,37.90
2023-05-14T10:45:53.951Z,39.33
2023-05-14T10:46:53.985Z,38.16
2023-05-14T10:47:54.025Z,38.60
2023-05-14T10:48:53.931Z,39.21
2023-05-14T10:49:53.936Z,37.90
2023-05-14T10:50:54.063Z,37.40
2023-05-14T10:51:53.972Z,39.16
2023-05-14T10:52:53.942Z,39.04
2023-05-14T10:53:53.964Z,38.07
2023-05-14T10:54:53.933Z,39.70
2023-05-14T10:55:53.968Z,38.98
2023-05-14T10:56:53.958Z,37.11
2023-05-14T10:57:53.942Z,39.55
2023-05-14T10:58:53.941Z,37.36
2023-05-14T10:59:53.935Z,36.88
2023-05-14T11:00:53.946Z,38.31
2023-05-14T11:01:54.015Z,40.78
2023-05-14T11:02:53.973Z,38.60
2023-05-14T11:03:53.957Z,38.42
2023-05-14T11:04:53.918Z,41.17
2023-05-14T11:05:54.435Z,39.34
2023-05-14T11:06:53.905Z,37.37
2023-05-14T11:07:53.906Z,38.20
2023-05-14T11:08:53.909Z,38.75
2023-05-14T11:09:53.985Z,40.15
2023-05-14T11:10:53.946Z,41.01
2023-05-14T11:11:53.932Z,39.38
2023-05-14T11:12:53.974Z,39.06
2023-05-14T11:13:54.009Z,40.39
2023-05-14T11:14:54.004Z,39.27
2023-05-14T11:15:54.002Z,40.25
2023-05-14T11:16:54.029Z,39.10
2023-05-14T11:17:54.130Z,39.66
2023-05-14T11:18:54.094Z,39.01
2023-05-14T11:19:54.091Z,41.02
2023-05-14T11:20:54.105Z,37.78
2023-05-14T11:21:54.131Z,39.87
2023-05-14T11:22:54.158Z,40.05
2023-05-14T11:23:54.184Z,39.75
2023-05-14T11:24:54.213Z,38.91
2023-05-14T11:25:54.279Z,39.38
2023-05-14T11:26:54.263Z,39.38
2023-05-14T11:27:54.287Z,42.37
2023-05-14T11:28:54.303Z,39.33
2023-05-14T11:29:54.328Z,39.87
2023-05-14T11:30:54.350Z,41.44
2023-05-14T11:31:54.383Z,42.21
2023-05-14T11:32:54.450Z,39.30
2023-05-14T11:33:54.425Z,39.35
2023-05-14T11:34:54.454Z,40.95
2023-05-14T11:35:54.462Z,41.02
2023-05-14T11:36:54.495Z,41.33
2023-05-14T11:37:54.526Z,43.20
2023-05-14T11:38:54.545Z,39.97
2023-05-14T11:39:54.565Z,40.81
2023-05-14T11:40:54.595Z,42.69
2023-05-14T11:41:54.643Z,38.57
2023-05-14T11:42:54.651Z,40.23
2023-05-14T11:43:54.680Z,39.49
2023-05-14T11:44:54.698Z,40.78
2023-05-14T11:45:54.748Z,39.42
2023-05-14T11:46:54.764Z,40.38
2023-05-14T11:47:54.881Z,43.13
2023-05-14T11:48:54.815Z,39.51
2023-05-14T11:49:54.832Z,40.23
2023-05-14T11:50:54.857Z,41.23
2023-05-14T11:51:54.881Z,38.25
2023-05-14T11:52:54.917Z,39.29
2023-05-14T11:53:54.944Z,40.83
2023-05-14T11:54:54.956Z,40.35
2023-05-14T11:55:54.970Z,39.35
2023-05-14T11:56:54.998Z,40.83
2023-05-14T11:57:55.045Z,40.82
2023-05-14T11:58:55.050Z,40.92
2023-05-14T11:59:55.070Z,42.06
2023-05-14T12:00:55.104Z,37.18
2023-05-14T12:01:55.110Z,40.91
2023-05-14T12:02:55.370Z,39.71
2023-05-14T12:03:55.295Z,41.91
2023-05-14T12:04:55.263Z,40.04
2023-05-14T12:05:55.209Z,40.92
2023-05-14T12:06:55.233Z,39.86
2023-05-14T12:07:55.261Z,41.86
2023-05-14T12:08:55.296Z,41.54
2023-05-14T12:09:55.330Z,40.90
2023-05-14T12:10:55.348Z,40.15
2023-05-14T12:11:55.403Z,39.61
2023-05-14T12:12:55.389Z,40.47
2023-05-14T12:13:55.438Z,38.72
2023-05-14T12:14:55.421Z,40.14
2023-05-14T12:15:55.488Z,40.25
2023-05-14T12:16:55.464Z,41.03
2023-05-14T12:17:55.495Z,39.69
2023-05-14T12:18:55.534Z,40.81
2023-05-14T12:19:55.519Z,40.39
2023-05-14T12:20:55.547Z,39.39
2023-05-14T12:21:55.570Z,40.99
2023-05-14T12:22:55.585Z,40.21
2023-05-14T12:23:55.592Z,37.81
2023-05-14T12:24:55.599Z,37.93
2023-05-14T12:25:55.632Z,38.54
2023-05-14T12:26:55.661Z,40.66
2023-05-14T12:27:55.673Z,34.72
2023-05-14T12:28:55.700Z,36.71
2023-05-14T12:29:55.741Z,37.91
2023-05-14T12:30:55.757Z,37.21
2023-05-14T12:31:55.893Z,36.91
2023-05-14T12:32:55.840Z,36.48
2023-05-14T12:33:55.815Z,35.04
2023-05-14T12:34:55.834Z,39.17
2023-05-14T12:35:56.197Z,37.60
2023-05-14T12:36:55.896Z,39.84
2023-05-14T12:37:55.939Z,37.97
2023-05-14T12:38:55.941Z,38.66
2023-05-14T12:39:55.962Z,41.30
2023-05-14T12:40:55.980Z,40.29
2023-05-14T12:41:56.012Z,40.54
2023-05-14T12:42:56.807Z,39.95
2023-05-14T12:43:56.055Z,40.94
2023-05-14T12:44:56.065Z,37.66
2023-05-14T12:45:56.166Z,37.92
2023-05-14T12:46:56.158Z,42.89
2023-05-14T12:47:56.205Z,39.63
2023-05-14T12:48:56.152Z,42.67
2023-05-14T12:49:56.187Z,41.44
2023-05-14T12:50:56.195Z,41.16
2023-05-14T12:52:07.896Z,36.36
2023-05-14T12:52:56.253Z,36.82